Time;durP1;ratioP1;P1;durP2;ratioP2;P2;SDS_P1;SDS_P2;PMS_P1;PMS_P2;Temp;Humidity;BMP_temperature;BMP_pressure;BME280_temperature;BME280_humidity;BME280_pressure;Samples;Min_cycle;Max_cycle;Signal;HPM_P1;HPM_P2
2023/03/20 00:00:56;;;;;;;;;;;;;;;10.77;78.27;100121.88;1088090;46;19982;-78
2023/03/20 00:01:58;;;;;;;;;;;;;;;10.69;78.42;100127.13;1087489;54;19967;-77
2023/03/20 00:03:02;;;;;;;;;;;;;;;10.55;78.83;100130.25;1087482;54;19943;-77
2023/03/20 00:04:03;;;;;;;;;;;;;;;10.55;79.24;100131.06;1087439;47;19939;-77
2023/03/20 00:05:17;;;;;;;;;;;;;;;10.59;79.32;100128.97;1087486;54;19954;-79
2023/03/20 00:06:20;;;;;;;;;;;;;;;10.61;78.92;100121.66;1087684;46;19966;-76
2023/03/20 00:07:23;;;;;;;;;;;;;;;10.57;79.21;100126.44;1087516;46;20052;-78
2023/03/20 00:08:27;;;;;;;;;;;;;;;10.48;79.65;100131.81;1087564;54;19946;-78
2023/03/20 00:09:31;;;;;;;;;;;;;;;10.44;79.24;100126.75;1087398;54;19947;-78
2023/03/20 00:10:37;;;;;;;;;;;;;;;10.48;79.69;100127.28;1087434;54;19942;-78
2023/03/20 00:11:42;;;;;;;;;;;;;;;10.49;79.60;100130.78;1088792;46;19945;-77
2023/03/20 00:12:47;;;;;;;;;;;;;;;10.51;79.50;100136.84;1087493;54;20177;-77
2023/03/20 00:13:48;;;;;;;;;;;;;;;10.44;79.20;100132.09;1087543;46;19939;-78
2023/03/20 00:14:51;;;;;;;;;;;;;;;10.39;79.67;100125.47;1087484;54;19949;-78
2023/03/20 00:15:53;;;;;;;;;;;;;;;10.42;79.53;100130.53;1087748;46;19939;-78
2023/03/20 00:16:57;;;;;;;;;;;;;;;10.43;79.73;100134.91;1087413;54;19985;-78
2023/03/20 00:17:58;;;;;;;;;;;;;;;10.49;79.34;100138.81;1087429;54;19949;-78
2023/03/20 00:19:02;;;;;;;;;;;;;;;10.47;79.24;100133.63;1088128;46;19946;-79
2023/03/20 00:20:03;;;;;;;;;;;;;;;10.41;79.61;100132.34;1087283;54;19942;-78
2023/03/20 00:21:11;;;;;;;;;;;;;;;10.38;79.61;100131.81;1087779;46;19939;-78
2023/03/20 00:22:12;;;;;;;;;;;;;;;10.38;79.58;100140.69;1087437;54;19946;-78
2023/03/20 00:23:16;;;;;;;;;;;;;;;10.43;79.30;100130.38;1087508;54;19939;-78
2023/03/20 00:24:17;;;;;;;;;;;;;;;10.45;79.24;100136.44;1087386;54;19949;-78
2023/03/20 00:25:25;;;;;;;;;;;;;;;10.43;79.51;100133.06;1087407;54;19939;-78
2023/03/20 00:26:30;;;;;;;;;;;;;;;10.43;79.06;100135.75;1087320;54;19973;-79
2023/03/20 00:27:33;;;;;;;;;;;;;;;10.43;78.61;100141.09;1087574;46;19955;-78
2023/03/20 00:28:37;;;;;;;;;;;;;;;10.41;78.75;100136.88;1088098;46;19942;-78
2023/03/20 00:29:42;;;;;;;;;;;;;;;10.44;78.85;100134.75;1087472;54;19998;-79
2023/03/20 00:30:43;;;;;;;;;;;;;;;10.36;79.01;100139.94;1087437;54;19942;-79
2023/03/20 00:31:47;;;;;;;;;;;;;;;10.48;78.58;100142.50;1087341;54;19949;-79
2023/03/20 00:32:49;;;;;;;;;;;;;;;10.49;78.59;100139.69;1087417;54;19942;-79
2023/03/20 00:33:52;;;;;;;;;;;;;;;10.56;78.43;100145.31;1087421;54;19939;-79
2023/03/20 00:34:54;;;;;;;;;;;;;;;10.59;78.10;100142.31;1087409;54;19942;-79
2023/03/20 00:35:57;;;;;;;;;;;;;;;10.60;77.90;100141.34;1087508;46;19938;-78
2023/03/20 00:36:59;;;;;;;;;;;;;;;10.53;78.01;100149.09;1087322;54;19967;-78
2023/03/20 00:38:02;;;;;;;;;;;;;;;10.52;78.55;100144.75;1087462;54;19998;-78
2023/03/20 00:39:04;;;;;;;;;;;;;;;10.57;78.26;100144.31;1087550;54;19943;-78
2023/03/20 00:40:09;;;;;;;;;;;;;;;10.49;77.90;100149.50;1088408;46;19949;-77
2023/03/20 00:41:19;;;;;;;;;;;;;;;10.52;78.47;100149.22;1087386;54;19962;-78
2023/03/20 00:42:23;;;;;;;;;;;;;;;10.52;78.28;100149.22;1087483;47;19943;-78
2023/03/20 00:43:24;;;;;;;;;;;;;;;10.55;78.03;100143.63;1087423;54;19962;-78
2023/03/20 00:44:29;;;;;;;;;;;;;;;10.58;77.79;100148.69;1088530;46;19942;-77
2023/03/20 00:45:31;;;;;;;;;;;;;;;10.56;78.09;100151.47;1087338;54;19943;-78
2023/03/20 00:46:39;;;;;;;;;;;;;;;10.64;77.89;100152.59;1087360;54;19946;-78
2023/03/20 00:47:40;;;;;;;;;;;;;;;10.70;77.60;100147.53;1087379;54;19943;-77
2023/03/20 00:48:45;;;;;;;;;;;;;;;10.61;77.80;100137.69;1087309;54;19943;-78
2023/03/20 00:49:47;;;;;;;;;;;;;;;10.60;77.36;100141.34;1087356;54;19942;-78
2023/03/20 00:50:51;;;;;;;;;;;;;;;10.64;77.53;100148.09;1087484;54;19938;-79
2023/03/20 00:51:52;;;;;;;;;;;;;;;10.70;77.28;100139.50;1087371;54;19965;-81
2023/03/20 00:52:56;;;;;;;;;;;;;;;10.70;77.04;100142.19;1087590;54;19942;-78
2023/03/20 00:53:57;;;;;;;;;;;;;;;10.70;76.92;100136.81;1087545;54;19942;-78
2023/03/20 00:55:01;;;;;;;;;;;;;;;10.73;76.91;100143.72;1087574;54;19946;-77
2023/03/20 00:56:02;;;;;;;;;;;;;;;10.72;77.03;100142.06;1087545;54;19958;-79
2023/03/20 00:57:10;;;;;;;;;;;;;;;10.72;76.91;100147.41;1087427;54;19954;-78
2023/03/20 00:58:11;;;;;;;;;;;;;;;10.80;76.96;100141.31;1087452;54;19943;-77
2023/03/20 00:59:18;;;;;;;;;;;;;;;10.84;76.83;100142.72;1087371;54;19939;-78
2023/03/20 01:00:33;;;;;;;;;;;;;;;10.78;76.66;100146.81;1087554;46;19942;-78
2023/03/20 01:01:34;;;;;;;;;;;;;;;10.76;76.93;100149.66;1089114;46;19945;-77
2023/03/20 01:02:38;;;;;;;;;;;;;;;10.76;76.85;100146.09;1087391;54;19950;-77
2023/03/20 01:03:39;;;;;;;;;;;;;;;10.65;77.12;100152.47;1087465;46;19938;-77
2023/03/20 01:04:43;;;;;;;;;;;;;;;10.63;77.55;100153.59;1087398;54;19945;-77
2023/03/20 01:05:45;;;;;;;;;;;;;;;10.58;77.75;100149.50;1088154;46;19945;-77
2023/03/20 01:06:49;;;;;;;;;;;;;;;10.55;77.85;100146.28;1088795;46;19945;-78
2023/03/20 01:07:50;;;;;;;;;;;;;;;10.58;77.81;100152.19;1088809;39;20181;-78
2023/03/20 01:08:56;;;;;;;;;;;;;;;10.55;77.81;100148.97;1087474;54;19946;-78
2023/03/20 01:09:57;;;;;;;;;;;;;;;10.54;77.81;100148.09;1087409;54;19949;-77
2023/03/20 01:11:01;;;;;;;;;;;;;;;10.53;77.97;100143.72;1088544;46;19939;-78
2023/03/20 01:12:12;;;;;;;;;;;;;;;10.52;78.23;100154.56;1088353;46;19947;-78
2023/03/20 01:13:21;;;;;;;;;;;;;;;10.49;77.78;100155.72;1087406;54;19981;-78
2023/03/20 01:14:23;;;;;;;;;;;;;;;10.49;78.00;100150.38;1087458;54;19995;-78
2023/03/20 01:15:29;;;;;;;;;;;;;;;10.49;78.06;100147.69;1087451;47;19946;-77
2023/03/20 01:16:30;;;;;;;;;;;;;;;10.51;78.00;100147.53;1087311;54;19943;-77
2023/03/20 01:17:34;;;;;;;;;;;;;;;10.50;77.92;100149.38;1088731;46;19943;-77
2023/03/20 01:18:35;;;;;;;;;;;;;;;10.46;78.18;100142.63;1087780;39;20270;-78
2023/03/20 01:19:39;;;;;;;;;;;;;;;10.47;77.96;100144.31;1087313;54;19946;-77
2023/03/20 01:20:40;;;;;;;;;;;;;;;10.49;78.24;100146.84;1087455;54;19949;-78
2023/03/20 01:21:44;;;;;;;;;;;;;;;10.47;78.31;100148.81;1087314;54;19939;-78
2023/03/20 01:22:48;;;;;;;;;;;;;;;10.42;78.30;100144.72;1087847;46;19946;-78
2023/03/20 01:23:52;;;;;;;;;;;;;;;10.45;77.96;100139.13;1087422;54;19945;-79
2023/03/20 01:24:53;;;;;;;;;;;;;;;10.48;78.11;100143.31;1087370;54;19951;-78
2023/03/20 01:25:57;;;;;;;;;;;;;;;10.43;78.13;100151.78;1087386;47;19986;-77
2023/03/20 01:27:02;;;;;;;;;;;;;;;10.45;78.24;100146.28;1087194;54;19939;-78
2023/03/20 01:28:13;;;;;;;;;;;;;;;10.46;78.06;100145.28;1087363;54;19939;-77
2023/03/20 01:29:19;;;;;;;;;;;;;;;10.42;78.38;100152.75;1087385;54;19970;-78
2023/03/20 01:30:24;;;;;;;;;;;;;;;10.49;77.80;100145.03;1087664;46;19954;-78
2023/03/20 01:31:25;;;;;;;;;;;;;;;10.51;77.92;100137.72;1087359;54;19945;-78
2023/03/20 01:32:29;;;;;;;;;;;;;;;10.47;78.04;100140.81;1087705;46;19944;-78
2023/03/20 01:33:30;;;;;;;;;;;;;;;10.52;77.54;100142.06;1089321;39;20398;-78
2023/03/20 01:34:33;;;;;;;;;;;;;;;10.43;78.02;100149.09;1089350;46;19953;-78
2023/03/20 01:35:34;;;;;;;;;;;;;;;10.46;77.83;100145.28;1087710;46;19946;-78
2023/03/20 01:36:38;;;;;;;;;;;;;;;10.49;77.77;100145.03;1087705;46;19946;-79
2023/03/20 01:37:40;;;;;;;;;;;;;;;10.43;77.96;100138.41;1087334;54;19942;-77
2023/03/20 01:38:44;;;;;;;;;;;;;;;10.49;77.38;100149.50;1087253;54;19965;-79
2023/03/20 01:39:45;;;;;;;;;;;;;;;10.45;77.62;100148.94;1089366;39;20172;-79
2023/03/20 01:40:52;;;;;;;;;;;;;;;10.53;77.55;100146.41;1087434;54;19954;-77
2023/03/20 01:41:54;;;;;;;;;;;;;;;10.56;77.09;100151.47;1087377;54;19943;-79
2023/03/20 01:42:57;;;;;;;;;;;;;;;10.54;77.28;100141.91;1087397;54;19948;-78
2023/03/20 01:44:00;;;;;;;;;;;;;;;10.55;77.38;100143.63;1087363;54;19942;-78
2023/03/20 01:45:11;;;;;;;;;;;;;;;10.53;76.95;100142.91;1087390;54;19956;-78
2023/03/20 01:46:16;;;;;;;;;;;;;;;10.54;77.15;100141.91;1087500;54;19942;-77
2023/03/20 01:47:22;;;;;;;;;;;;;;;10.53;76.87;100146.41;1087823;54;19939;-78
2023/03/20 08:38:15;;;;;;;;;;;;;;;10.82;73.39;100297.13;1089967;46;20473;-82
2023/03/20 08:39:21;;;;;;;;;;;;;;;10.93;73.29;100297.81;1088604;54;19938;-81
2023/03/20 08:40:27;;;;;;;;;;;;;;;11.00;73.18;100294.59;1088529;54;19934;-81
2023/03/20 08:41:31;;;;;;;;;;;;;;;11.11;72.39;100297.09;1089536;46;19973;-82
2023/03/20 08:42:32;;;;;;;;;;;;;;;11.14;71.86;100296.00;1089726;46;19935;-83
2023/03/20 08:43:36;;;;;;;;;;;;;;;11.19;71.78;100299.91;1088180;54;19954;-80
2023/03/20 08:44:42;;;;;;;;;;;;;;;11.21;71.79;100295.25;1088449;54;19955;-82
2023/03/20 08:45:44;;;;;;;;;;;;;;;11.16;71.59;100299.34;1088365;54;19943;-82
2023/03/20 08:47:01;;;;;;;;;;;;;;;11.05;71.62;100303.88;1088751;46;20019;-81
2023/03/20 08:48:02;;;;;;;;;;;;;;;11.03;71.73;100308.53;1088534;54;19954;-83
2023/03/20 08:52:08;;;;;;;;;;;;;;;10.98;72.34;100308.09;1088617;54;19957;-82
2023/03/20 08:53:12;;;;;;;;;;;;;;;10.93;72.38;100311.19;1092931;46;19930;-83
2023/03/20 08:54:17;;;;;;;;;;;;;;;11.04;72.53;100310.22;1088559;54;19934;-80
2023/03/20 08:55:30;;;;;;;;;;;;;;;10.99;72.11;100311.63;1088622;54;19943;-82
2023/03/20 08:56:34;;;;;;;;;;;;;;;10.97;72.55;100309.09;1092031;46;19958;-81
2023/03/20 08:58:07;;;;;;;;;;;;;;;10.86;72.43;100317.28;1088489;54;19943;-83
2023/03/20 08:59:09;;;;;;;;;;;;;;;10.71;73.39;100309.63;1089236;46;19959;-80
2023/03/20 09:00:16;;;;;;;;;;;;;;;10.75;73.61;100313.75;1088489;54;19942;-82
2023/03/20 09:01:20;;;;;;;;;;;;;;;10.79;73.63;100316.13;1089657;46;19958;-81
2023/03/20 09:02:22;;;;;;;;;;;;;;;10.75;73.78;100311.06;1088474;54;19994;-83
2023/03/20 09:03:26;;;;;;;;;;;;;;;10.89;73.55;100311.63;1088454;54;19950;-82
2023/03/20 09:04:48;;;;;;;;;;;;;;;10.83;73.25;100310.34;1088546;54;19953;-83
2023/03/20 09:05:52;;;;;;;;;;;;;;;10.75;73.30;100308.41;1088502;54;19934;-82
2023/03/20 09:06:56;;;;;;;;;;;;;;;10.73;73.42;100309.50;1088412;54;19954;-82
2023/03/20 09:08:01;;;;;;;;;;;;;;;10.86;73.63;100309.25;1088676;46;19966;-82
2023/03/20 09:09:06;;;;;;;;;;;;;;;10.87;73.01;100305.56;1088479;54;19974;-81
2023/03/20 09:10:11;;;;;;;;;;;;;;;11.03;72.71;100305.88;1088379;54;20584;-82
2023/03/20 09:11:26;;;;;;;;;;;;;;;11.09;72.29;100312.47;1088328;54;19946;-82
2023/03/20 09:12:27;;;;;;;;;;;;;;;11.23;72.08;100309.34;1088429;54;19950;-82
2023/03/20 09:13:31;;;;;;;;;;;;;;;11.16;71.84;100312.72;1088390;54;19938;-82
2023/03/20 09:14:35;;;;;;;;;;;;;;;10.99;71.96;100311.63;1088415;54;19942;-81
2023/03/20 09:15:37;;;;;;;;;;;;;;;10.93;72.29;100313.03;1088972;39;20589;-85
2023/03/20 09:16:41;;;;;;;;;;;;;;;10.91;72.86;100315.84;1088436;54;19941;-81
2023/03/20 09:17:59;;;;;;;;;;;;;;;11.05;72.02;100322.59;1088460;54;19958;-81
2023/03/20 09:19:03;;;;;;;;;;;;;;;11.05;71.89;100319.09;1089605;46;20647;-83
2023/03/20 09:20:15;;;;;;;;;;;;;;;10.99;72.08;100317.81;1088520;54;19946;-82
2023/03/20 09:21:17;;;;;;;;;;;;;;;10.99;72.37;100328.53;1088481;54;19946;-82
2023/03/20 09:22:29;;;;;;;;;;;;;;;11.07;72.13;100320.63;1088428;54;19934;-82
2023/03/20 09:23:31;;;;;;;;;;;;;;;11.01;72.00;100315.84;1088546;54;19927;-81
2023/03/20 09:24:35;;;;;;;;;;;;;;;10.98;72.14;100316.13;1094580;39;20587;-80
2023/03/20 09:25:36;;;;;;;;;;;;;;;11.06;71.81;100324.28;1088447;54;19958;-82
2023/03/20 09:26:43;;;;;;;;;;;;;;;11.05;71.77;100321.75;1088356;54;19942;-81
2023/03/20 09:27:47;;;;;;;;;;;;;;;11.17;71.67;100317.97;1088386;54;19943;-82
2023/03/20 09:29:02;;;;;;;;;;;;;;;11.31;71.61;100324.72;1088810;39;20510;-81
2023/03/20 09:30:04;;;;;;;;;;;;;;;11.31;71.23;100316.69;1088482;54;19939;-83
2023/03/20 09:31:09;;;;;;;;;;;;;;;11.24;71.42;100319.06;1088465;54;19941;-82
2023/03/20 09:32:10;;;;;;;;;;;;;;;11.13;71.65;100329.09;1088506;54;20000;-82
2023/03/20 09:33:17;;;;;;;;;;;;;;;11.13;72.03;100323.75;1088865;39;20605;-82
2023/03/20 09:34:18;;;;;;;;;;;;;;;11.27;71.54;100325.97;1088400;54;19933;-82
2023/03/20 09:35:24;;;;;;;;;;;;;;;11.32;71.31;100321.06;1088450;54;19954;-82
2023/03/20 09:36:25;;;;;;;;;;;;;;;11.34;71.23;100319.06;1097987;39;20625;-82
2023/03/20 09:37:29;;;;;;;;;;;;;;;11.41;71.07;100326.53;1088271;54;19943;-83
2023/03/20 09:38:33;;;;;;;;;;;;;;;11.39;70.70;100329.31;1088136;54;19934;-82
2023/03/20 09:39:35;;;;;;;;;;;;;;;11.49;70.67;100330.16;1088336;54;19941;-82
2023/03/20 09:40:48;;;;;;;;;;;;;;;11.47;70.60;100324.13;1088336;54;19977;-82
2023/03/20 09:41:55;;;;;;;;;;;;;;;11.51;70.43;100327.34;1088229;54;19998;-82
2023/03/20 09:43:04;;;;;;;;;;;;;;;11.58;70.12;100325.78;1087863;54;19934;-81
2023/03/20 09:44:11;;;;;;;;;;;;;;;11.47;70.38;100323.25;1088364;54;19942;-82
2023/03/20 09:45:18;;;;;;;;;;;;;;;11.46;70.48;100334.97;1088197;54;19994;-82
2023/03/20 09:46:28;;;;;;;;;;;;;;;11.54;70.29;100329.72;1088232;54;20025;-81
2023/03/20 09:47:35;;;;;;;;;;;;;;;11.65;70.05;100342.13;1088185;54;19946;-82
2023/03/20 09:48:40;;;;;;;;;;;;;;;11.65;69.29;100334.91;1089201;39;20468;-82
2023/03/20 09:49:48;;;;;;;;;;;;;;;11.56;69.24;100335.78;1088285;54;19942;-80
2023/03/20 09:50:55;;;;;;;;;;;;;;;11.53;69.61;100336.94;1088279;54;19949;-84
2023/03/20 09:51:58;;;;;;;;;;;;;;;11.37;69.58;100329.47;1088234;54;19933;-82
2023/03/20 09:53:06;;;;;;;;;;;;;;;11.53;69.65;100333.38;1088326;54;19950;-81
2023/03/20 09:54:11;;;;;;;;;;;;;;;11.68;69.13;100339.13;1088163;54;19966;-81
2023/03/20 09:55:16;;;;;;;;;;;;;;;11.56;69.14;100341.16;1088312;54;19950;-82
2023/03/20 09:56:24;;;;;;;;;;;;;;;11.55;69.35;100334.09;1088275;54;19927;-82
2023/03/20 09:57:39;;;;;;;;;;;;;;;11.59;68.93;100340.00;1088205;54;19927;-82
2023/03/20 09:58:44;;;;;;;;;;;;;;;11.66;69.28;100346.50;1093344;39;20621;-82
2023/03/20 09:59:46;;;;;;;;;;;;;;;11.66;68.77;100336.63;1088266;54;19954;-82
2023/03/20 10:00:50;;;;;;;;;;;;;;;11.52;68.74;100339.75;1088370;54;19933;-83
2023/03/20 10:01:59;;;;;;;;;;;;;;;11.47;68.55;100336.66;1088226;54;19980;-80
2023/03/20 10:03:05;;;;;;;;;;;;;;;11.49;68.91;100340.03;1088238;54;19942;-81
2023/03/20 10:04:10;;;;;;;;;;;;;;;11.67;68.55;100340.13;1090334;46;19966;-81
2023/03/20 10:05:17;;;;;;;;;;;;;;;11.71;67.96;100345.03;1088174;54;19949;-79
2023/03/20 10:06:24;;;;;;;;;;;;;;;11.67;68.65;100342.78;1088320;54;19931;-81
2023/03/20 10:07:34;;;;;;;;;;;;;;;11.64;67.34;100340.44;1088148;54;19926;-81
2023/03/20 10:08:38;;;;;;;;;;;;;;;11.58;67.67;100343.66;1088192;54;20619;-81
2023/03/20 10:09:47;;;;;;;;;;;;;;;11.64;67.75;100346.63;1088314;54;19942;-83
2023/03/20 10:10:53;;;;;;;;;;;;;;;11.63;67.44;100344.94;1088365;54;19930;-82
2023/03/20 10:12:12;;;;;;;;;;;;;;;11.55;67.73;100350.16;1088148;54;19934;-81
2023/03/20 10:13:29;;;;;;;;;;;;;;;11.65;67.62;100339.44;1097916;39;20785;-82
2023/03/20 10:14:38;;;;;;;;;;;;;;;11.59;67.72;100343.53;1088246;54;19943;-82
2023/03/20 10:15:45;;;;;;;;;;;;;;;11.52;67.62;100345.94;1088351;54;20627;-82
2023/03/20 10:16:59;;;;;;;;;;;;;;;11.38;67.98;100349.91;1088412;54;20602;-83
2023/03/20 10:18:10;;;;;;;;;;;;;;;11.27;68.25;100349.22;1088264;54;19942;-80
2023/03/20 10:19:19;;;;;;;;;;;;;;;11.38;68.00;100344.56;1088255;54;19972;-82
2023/03/20 10:20:27;;;;;;;;;;;;;;;11.55;67.92;100347.47;1088263;54;19946;-82
2023/03/20 10:21:31;;;;;;;;;;;;;;;11.61;67.91;100344.25;1088347;54;20633;-81
2023/03/20 10:22:44;;;;;;;;;;;;;;;11.70;67.51;100343.38;1088220;54;20007;-83
2023/03/20 10:23:51;;;;;;;;;;;;;;;11.74;66.72;100349.28;1088185;54;19942;-82
2023/03/20 10:24:57;;;;;;;;;;;;;;;11.74;67.35;100348.44;1088200;54;20603;-82
2023/03/20 10:26:02;;;;;;;;;;;;;;;11.59;66.88;100351.56;1088173;54;20577;-81
2023/03/20 10:27:19;;;;;;;;;;;;;;;11.64;67.17;100341.25;1088248;54;19978;-80
2023/03/20 10:28:37;;;;;;;;;;;;;;;11.67;66.93;100348.16;1088160;54;20003;-82
2023/03/20 10:29:51;;;;;;;;;;;;;;;11.50;67.36;100342.56;1088282;47;19949;-83
2023/03/20 10:30:57;;;;;;;;;;;;;;;11.47;67.36;100342.88;1088399;54;19947;-83
2023/03/20 10:32:08;;;;;;;;;;;;;;;11.44;67.93;100342.28;1088283;54;19995;-82
2023/03/20 10:33:23;;;;;;;;;;;;;;;11.45;67.92;100346.66;1088219;54;19942;-82
2023/03/20 10:34:37;;;;;;;;;;;;;;;11.52;67.37;100339.75;1088246;54;19943;-82
2023/03/20 10:35:41;;;;;;;;;;;;;;;11.57;67.32;100332.13;1088173;54;19927;-81
2023/03/20 10:38:24;;;;;;;;;;;;;;;11.74;66.86;100343.06;1088150;54;19935;-84
2023/03/20 10:39:36;;;;;;;;;;;;;;;11.86;66.50;100334.72;1089525;39;20535;-83
2023/03/20 10:40:41;;;;;;;;;;;;;;;11.93;66.59;100336.81;1092597;46;19954;-81
2023/03/20 10:41:45;;;;;;;;;;;;;;;12.00;66.30;100336.09;1095607;47;19943;-81
2023/03/20 10:42:53;;;;;;;;;;;;;;;11.84;66.58;100341.22;1088239;54;19931;-83
2023/03/20 10:44:01;;;;;;;;;;;;;;;11.88;66.87;100339.09;1088082;54;19935;-83
2023/03/20 10:45:11;;;;;;;;;;;;;;;11.89;66.44;100330.06;1089166;47;19939;-83
2023/03/20 10:46:17;;;;;;;;;;;;;;;11.67;67.12;100338.31;1088271;54;19957;-82
2023/03/20 10:47:20;;;;;;;;;;;;;;;11.78;67.16;100339.97;1088229;54;19927;-83
2023/03/20 10:49:55;;;;;;;;;;;;;;;11.64;66.81;100333.22;1089298;47;19939;-82
2023/03/20 10:51:01;;;;;;;;;;;;;;;11.73;66.93;100339.56;1088798;47;19943;-81
2023/03/20 10:52:04;;;;;;;;;;;;;;;11.79;66.89;100335.47;1093564;47;19943;-81
2023/03/20 10:53:09;;;;;;;;;;;;;;;11.90;66.22;100340.66;1088094;54;20015;-81
2023/03/20 10:54:20;;;;;;;;;;;;;;;11.94;65.84;100335.84;1088627;39;20610;-81
2023/03/20 10:55:25;;;;;;;;;;;;;;;11.76;66.29;100341.94;1088505;54;19934;-82
2023/03/20 10:56:32;;;;;;;;;;;;;;;11.80;66.05;100331.78;1088587;54;20666;-83
2023/03/20 10:57:36;;;;;;;;;;;;;;;11.65;66.89;100342.97;1088546;54;20178;-82
2023/03/20 11:00:20;;;;;;;;;;;;;;;11.64;66.97;100335.06;1088405;54;19935;-81
2023/03/20 11:01:24;;;;;;;;;;;;;;;11.62;66.75;100335.19;1088569;54;19974;-83
2023/03/20 11:02:27;;;;;;;;;;;;;;;11.73;66.79;100336.03;1088482;54;19943;-83
2023/03/20 11:03:33;;;;;;;;;;;;;;;11.86;66.33;100334.72;1088485;54;20590;-81
2023/03/20 11:06:17;;;;;;;;;;;;;;;11.97;66.01;100331.06;1088532;54;19934;-80
2023/03/20 11:07:22;;;;;;;;;;;;;;;12.13;65.79;100333.13;1088378;54;20020;-82
2023/03/20 11:08:37;;;;;;;;;;;;;;;12.26;65.50;100331.91;1088491;54;20731;-82
2023/03/20 11:09:41;;;;;;;;;;;;;;;12.12;64.55;100326.06;1088495;54;19951;-83
2023/03/20 11:11:03;;;;;;;;;;;;;;;12.02;64.32;100330.63;1088542;54;20698;-84
2023/03/20 11:13:18;;;;;;;;;;;;;;;11.92;65.02;100327.09;1087889;54;19943;-83
2023/03/20 11:14:26;;;;;;;;;;;;;;;12.02;64.61;100331.44;1088360;54;19950;-82
2023/03/20 11:15:31;;;;;;;;;;;;;;;12.17;64.35;100328.28;1088582;54;19967;-85
2023/03/20 11:18:07;;;;;;;;;;;;;;;11.95;65.81;100330.31;1094180;39;20476;-82
2023/03/20 11:19:20;;;;;;;;;;;;;;;;;;;;;
2023/03/20 11:30:00;;;;;;;;;;;;;;;12.14;65.10;100329.41;1088496;54;19915;-83
2023/03/20 11:31:19;;;;;;;;;;;;;;;12.09;64.58;100333.56;1090634;46;19933;-81
2023/03/20 11:32:32;;;;;;;;;;;;;;;12.21;64.77;100332.34;1089406;46;19945;-83
2023/03/20 12:16:29;;;;;;;;;;;;;;;12.87;56.87;100292.84;1088496;54;19942;-84
2023/03/20 12:17:34;;;;;;;;;;;;;;;12.83;56.59;100286.09;1088570;54;20547;-82
2023/03/20 12:21:57;;;;;;;;;;;;;;;13.24;56.66;100283.75;1088569;54;19958;-83
2023/03/20 12:23:18;;;;;;;;;;;;;;;13.31;56.37;100280.44;1088500;54;19958;-83
2023/03/20 12:24:26;;;;;;;;;;;;;;;13.35;55.93;100279.13;1088535;54;19927;-83
2023/03/20 12:25:34;;;;;;;;;;;;;;;13.48;55.78;100278.72;1088515;54;19949;-82
2023/03/20 12:26:38;;;;;;;;;;;;;;;13.29;55.90;100271.69;1089464;46;19954;-84
2023/03/20 12:27:52;;;;;;;;;;;;;;;13.29;55.57;100271.69;1094220;46;19938;-81
2023/03/20 12:28:59;;;;;;;;;;;;;;;13.37;55.66;100271.75;1090394;46;19946;-83
2023/03/20 12:30:03;;;;;;;;;;;;;;;13.17;55.80;100274.63;1088525;54;19942;-83
2023/03/20 12:31:22;;;;;;;;;;;;;;;13.37;55.78;100261.00;1097305;39;20506;-83
2023/03/20 12:32:30;;;;;;;;;;;;;;;13.49;55.71;100261.63;1090936;46;19943;-84
2023/03/20 12:33:40;;;;;;;;;;;;;;;13.50;55.72;100268.69;1094707;39;20468;-84
2023/03/20 12:34:43;;;;;;;;;;;;;;;13.36;55.58;100268.25;1088612;54;19958;-83
2023/03/20 12:37:20;;;;;;;;;;;;;;;13.23;56.09;100263.25;1088478;54;19923;-83
2023/03/20 12:38:26;;;;;;;;;;;;;;;13.38;56.10;100262.69;1088514;54;19983;-84
2023/03/20 12:39:33;;;;;;;;;;;;;;;13.49;55.37;100265.16;1088508;54;19927;-83
2023/03/20 12:40:41;;;;;;;;;;;;;;;13.44;55.44;100250.53;1088501;54;19951;-83
2023/03/20 12:41:50;;;;;;;;;;;;;;;13.55;55.20;100247.56;1088468;54;19931;-82
2023/03/20 12:42:59;;;;;;;;;;;;;;;13.45;55.13;100255.72;1088584;54;19935;-83
2023/03/20 12:44:24;;;;;;;;;;;;;;;13.40;54.92;100255.38;1088462;54;19935;-80
2023/03/20 12:48:54;;;;;;;;;;;;;;;13.54;55.12;100246.72;1088083;54;19931;-82
2023/03/20 12:50:03;;;;;;;;;;;;;;;13.67;54.83;100242.75;1088299;54;19943;-82
2023/03/20 12:51:10;;;;;;;;;;;;;;;13.60;55.15;100247.91;1088153;54;19967;-82
2023/03/20 12:52:14;;;;;;;;;;;;;;;13.55;54.99;100250.25;1088299;54;19935;-83
2023/03/20 12:55:12;;;;;;;;;;;;;;;13.40;54.87;100244.63;1088337;54;19938;-83
2023/03/20 12:56:20;;;;;;;;;;;;;;;13.20;55.20;100239.44;1088430;54;19954;-83
2023/03/20 12:59:13;;;;;;;;;;;;;;;13.32;55.08;100241.88;1088243;54;19915;-84
2023/03/20 13:00:19;;;;;;;;;;;;;;;13.25;55.55;100239.78;1088122;54;19951;-83
2023/03/20 13:01:24;;;;;;;;;;;;;;;13.39;55.20;100242.94;1088255;54;19942;-83
2023/03/20 13:02:33;;;;;;;;;;;;;;;13.50;54.90;100237.31;1088277;54;19942;-83
2023/03/20 13:07:03;;;;;;;;;;;;;;;13.60;54.59;100234.50;1088249;54;19919;-81
2023/03/20 13:16:28;;;;;;;;;;;;;;;14.17;53.92;100209.66;1088129;46;19927;-82
2023/03/20 13:17:33;;;;;;;;;;;;;;;14.15;53.87;100211.69;1088240;54;19941;-82
2023/03/20 13:20:23;;;;;;;;;;;;;;;14.14;53.22;100201.09;1088374;54;20662;-83
2023/03/20 13:21:26;;;;;;;;;;;;;;;14.19;52.92;100202.28;1088461;54;19923;-82
2023/03/20 13:22:55;;;;;;;;;;;;;;;14.21;52.64;100204.84;1088627;39;20563;-83
2023/03/20 13:24:05;;;;;;;;;;;;;;;14.28;52.46;100199.63;1096049;39;20621;-83
2023/03/20 13:25:19;;;;;;;;;;;;;;;14.27;52.39;100203.31;1088580;54;19973;-83
2023/03/20 13:26:25;;;;;;;;;;;;;;;14.29;52.33;100195.91;1088460;54;19934;-84
2023/03/20 13:27:35;;;;;;;;;;;;;;;14.06;52.25;100196.56;1088445;54;19934;-82
2023/03/20 13:29:46;;;;;;;;;;;;;;;13.85;52.74;100191.59;1087673;54;19935;-83
2023/03/20 13:30:54;;;;;;;;;;;;;;;14.08;53.05;100193.69;1088493;54;19934;-82
2023/03/20 13:32:05;;;;;;;;;;;;;;;14.11;52.50;100194.22;1088478;54;19943;-83
2023/03/20 13:33:27;;;;;;;;;;;;;;;14.28;52.69;100189.72;1088482;54;19978;-82
2023/03/20 13:34:36;;;;;;;;;;;;;;;14.34;52.07;100183.66;1088399;54;19950;-84
2023/03/20 13:36:03;;;;;;;;;;;;;;;;;;;;;
2023/03/20 13:45:25;;;;;;;;;;;;;;;14.61;51.62;100178.97;1088099;54;20659;-83
2023/03/20 13:46:35;;;;;;;;;;;;;;;14.68;51.80;100179.19;1086848;54;19951;-80
2023/03/20 13:47:39;;;;;;;;;;;;;;;14.60;50.89;100176.47;1086716;54;19947;-80
2023/03/20 13:48:44;;;;;;;;;;;;;;;14.45;51.13;100169.03;1087452;54;20019;-80
2023/03/20 13:49:50;;;;;;;;;;;;;;;14.58;51.19;100178.47;1087009;54;19957;-81
2023/03/20 13:50:58;;;;;;;;;;;;;;;14.63;51.30;100166.19;1086411;31;20510;-80
2023/03/20 13:52:03;;;;;;;;;;;;;;;14.49;50.89;100170.41;1085899;54;19954;-79
2023/03/20 13:53:12;;;;;;;;;;;;;;;14.55;51.36;100165.38;1087640;46;19970;-79
2023/03/20 13:54:23;;;;;;;;;;;;;;;14.39;51.09;100169.72;1086848;54;19943;-79
2023/03/20 13:55:34;;;;;;;;;;;;;;;14.47;50.56;100166.19;1086655;54;19955;-80
2023/03/20 13:56:40;;;;;;;;;;;;;;;14.47;49.79;100171.59;1086744;54;19922;-78
2023/03/20 13:57:50;;;;;;;;;;;;;;;14.45;48.47;100169.03;1087927;54;19957;-82
2023/03/20 13:58:59;;;;;;;;;;;;;;;14.54;48.09;100169.91;1088053;54;19954;-81
2023/03/20 14:00:09;;;;;;;;;;;;;;;14.55;48.44;100162.69;1088173;54;19939;-79
2023/03/20 14:01:13;;;;;;;;;;;;;;;14.62;48.37;100161.00;1089681;39;20381;-82
2023/03/20 14:02:25;;;;;;;;;;;;;;;14.65;48.14;100164.19;1087994;54;19953;-80
2023/03/20 14:03:34;;;;;;;;;;;;;;;14.66;48.31;100162.31;1087147;54;19950;-80
2023/03/20 14:04:38;;;;;;;;;;;;;;;14.81;48.63;100158.00;1087476;54;20002;-79
2023/03/20 14:05:47;;;;;;;;;;;;;;;14.77;48.07;100158.50;1087645;54;19963;-80
2023/03/20 14:06:53;;;;;;;;;;;;;;;14.80;47.77;100160.84;1087653;54;19978;-79
2023/03/20 14:07:55;;;;;;;;;;;;;;;14.88;48.14;100162.69;1087996;54;19923;-83
2023/03/20 14:09:01;;;;;;;;;;;;;;;14.74;47.45;100156.97;1088141;54;19986;-82
2023/03/20 14:10:17;;;;;;;;;;;;;;;14.88;47.94;100162.69;1088393;54;19962;-82
2023/03/20 14:11:38;;;;;;;;;;;;;;;14.96;48.09;100159.97;1088428;54;19923;-82